Time;durP1;ratioP1;P1;durP2;ratioP2;P2;SDS_P1;SDS_P2;PMS_P1;PMS_P2;Temp;Humidity;BMP_temperature;BMP_pressure;BME280_temperature;BME280_humidity;BME280_pressure;Samples;Min_cycle;Max_cycle;Signal;HPM_P1;HPM_P2
2021/09/03 00:01:12;;;;;;;18.00;6.88;;;;;;;12.29;52.93;98215.50;4981185;28;20506;-75
2021/09/03 00:03:55;;;;;;;36.03;15.50;;;;;;;11.97;52.81;98173.78;4982232;28;20042;-76
2021/09/03 00:06:41;;;;;;;47.08;20.98;;;;;;;12.26;53.01;98209.88;4981258;28;20111;-76
2021/09/03 00:09:26;;;;;;;55.72;22.08;;;;;;;12.01;53.06;98166.53;4963160;28;20053;-75
2021/09/03 00:12:15;;;;;;;38.80;16.90;;;;;;;12.22;53.49;98182.31;4982308;28;20337;-75
2021/09/03 00:14:46;;;;;;;30.75;13.60;;;;;;;12.56;53.49;98238.19;4981243;28;20061;-75
2021/09/03 00:17:22;;;;;;;23.05;9.88;;;;;;;12.21;53.73;98183.44;4997170;28;20085;-75
2021/09/03 00:20:02;;;;;;;15.30;7.10;;;;;;;12.21;53.77;98186.19;4971891;28;20143;-74
2021/09/03 00:22:34;;;;;;;11.15;4.60;;;;;;;12.07;53.52;98158.16;4981158;28;20050;-75
2021/09/03 00:25:08;;;;;;;16.85;3.97;;;;;;;12.49;53.73;98226.94;4995147;28;20046;-75
2021/09/03 00:27:49;;;;;;;21.88;5.60;;;;;;;12.31;53.60;98204.22;4978659;28;20042;-76
2021/09/03 00:30:48;;;;;;;26.58;9.43;;;;;;;12.25;53.66;98203.56;5013288;28;20062;-76
2021/09/03 00:33:47;;;;;;;46.58;15.70;;;;;;;11.99;53.94;98176.97;4959596;28;20062;-76
2021/09/03 00:36:48;;;;;;;67.15;22.40;;;;;;;12.23;53.60;98202.28;4988348;28;20459;-75
2021/09/03 00:39:27;;;;;;;77.82;25.23;;;;;;;11.86;53.58;98151.38;5018605;28;20045;-75
2021/09/03 00:42:27;;;;;;;86.50;26.60;;;;;;;12.28;53.64;98216.63;5009604;28;20037;-75
2021/09/03 00:45:16;;;;;;;102.60;31.88;;;;;;;11.75;53.65;98129.03;5002656;28;20128;-75
2021/09/03 00:48:03;;;;;;;81.45;27.67;;;;;;;12.02;53.50;98176.38;4989547;28;20045;-76
2021/09/03 00:50:40;;;;;;;94.35;31.33;;;;;;;11.78;53.69;98147.53;4995342;28;20049;-81
2021/09/03 00:53:33;;;;;;;118.00;39.78;;;;;;;12.00;53.59;98192.28;5019152;28;20049;-77
2021/09/03 00:56:17;;;;;;;95.60;37.65;;;;;;;11.88;53.74;98164.78;4988830;28;20041;-77
2021/09/03 00:59:24;;;;;;;80.80;33.50;;;;;;;11.90;53.73;98154.28;5002947;28;20052;-77
2021/09/03 01:02:18;;;;;;;46.47;20.85;;;;;;;11.57;53.60;98119.22;4964527;28;20116;-78
2021/09/03 01:04:58;;;;;;;29.75;12.77;;;;;;;11.55;53.71;98122.25;4957646;28;20098;-77
2021/09/03 01:07:38;;;;;;;25.25;10.63;;;;;;;11.55;53.62;98107.75;4967507;28;20056;-77
2021/09/03 01:10:44;;;;;;;12.88;5.53;;;;;;;12.03;52.96;98161.56;4984281;28;20108;-77
2021/09/03 01:13:21;;;;;;;11.40;3.58;;;;;;;11.75;52.78;98133.69;4974406;28;20523;-76
2021/09/03 01:16:30;;;;;;;10.00;3.67;;;;;;;11.80;52.72;98136.25;4968830;28;20522;-76
2021/09/03 01:19:22;;;;;;;11.65;3.30;;;;;;;11.47;53.12;98096.50;4999885;28;20111;-77
2021/09/03 01:22:01;;;;;;;9.43;2.97;;;;;;;11.54;53.05;98115.19;4982017;28;20176;-77
2021/09/03 01:24:55;;;;;;;8.73;2.85;;;;;;;11.51;53.21;98095.84;4966899;28;20046;-76
2021/09/03 01:27:41;;;;;;;9.25;3.08;;;;;;;11.81;53.39;98137.88;4980573;28;20482;-76
2021/09/03 01:30:28;;;;;;;11.13;3.95;;;;;;;11.98;53.37;98166.38;4984207;28;20046;-77
2021/09/03 01:33:18;;;;;;;11.00;2.72;;;;;;;11.62;53.10;98094.41;4988009;28;20045;-76
2021/09/03 01:36:15;;;;;;;7.07;2.80;;;;;;;11.43;52.98;98073.66;5008434;28;20061;-76
2021/09/03 01:39:28;;;;;;;10.50;2.60;;;;;;;11.97;53.08;98162.81;4997662;28;20508;-77
2021/09/03 01:42:02;;;;;;;8.05;2.53;;;;;;;11.43;52.75;98081.84;5000030;28;20077;-75
2021/09/03 01:44:29;;;;;;;8.40;2.70;;;;;;;11.74;53.13;98143.03;4998385;28;20564;-74
2021/09/03 01:46:56;;;;;;;7.10;2.35;;;;;;;11.74;53.01;98134.81;5042447;28;20045;-74
2021/09/03 01:49:25;;;;;;;7.53;2.67;;;;;;;11.45;53.06;98089.72;5038048;28;20536;-74
2021/09/03 01:51:51;;;;;;;12.25;2.58;;;;;;;11.33;53.30;98087.66;5008807;28;20182;-75
2021/09/03 01:54:30;;;;;;;12.07;2.58;;;;;;;11.70;53.33;98142.06;4990089;28;20057;-74
2021/09/03 01:56:57;;;;;;;10.73;3.03;;;;;;;11.60;53.42;98127.56;5025634;28;20115;-74
2021/09/03 01:59:23;;;;;;;11.18;2.80;;;;;;;11.42;53.32;98099.41;5006275;28;20045;-74
2021/09/03 02:01:54;;;;;;;10.13;2.58;;;;;;;11.68;53.67;98145.09;4999397;28;20053;-74
2021/09/03 02:04:29;;;;;;;10.40;2.78;;;;;;;11.33;53.90;98101.31;5023180;28;20135;-74
2021/09/03 02:06:59;;;;;;;7.32;2.45;;;;;;;11.31;53.96;98109.84;5023053;28;20180;-74
2021/09/03 02:09:28;;;;;;;8.63;2.60;;;;;;;11.17;54.17;98101.78;5004968;28;20048;-73
2021/09/03 02:11:57;;;;;;;12.70;2.92;;;;;;;11.32;54.03;98113.41;4989059;28;20046;-74
2021/09/03 02:14:24;;;;;;;9.43;2.60;;;;;;;11.39;53.89;98118.41;5021972;28;20132;-72
2021/09/03 02:16:51;;;;;;;8.18;2.47;;;;;;;11.58;53.60;98148.19;5008215;28;20057;-74
2021/09/03 02:19:24;;;;;;;10.52;2.42;;;;;;;10.95;54.08;98066.38;4990934;28;20094;-75
2021/09/03 02:21:51;;;;;;;7.80;2.17;;;;;;;11.15;54.09;98089.56;5007899;28;20307;-74
2021/09/03 02:24:17;;;;;;;8.10;2.50;;;;;;;11.24;54.08;98101.31;5006709;28;20448;-74
2021/09/03 02:26:45;;;;;;;12.40;2.35;;;;;;;11.35;54.15;98126.44;5021415;28;20499;-74
2021/09/03 02:29:12;;;;;;;10.18;2.65;;;;;;;11.34;54.17;98127.56;5021682;28;20057;-76
2021/09/03 02:31:40;;;;;;;15.40;2.70;;;;;;;10.91;54.20;98052.53;5040268;28;20076;-75
2021/09/03 02:34:12;;;;;;;10.60;2.30;;;;;;;11.00;54.40;98077.16;5040134;28;20061;-75
2021/09/03 02:36:44;;;;;;;10.77;2.60;;;;;;;10.97;54.15;98072.34;4976373;28;20053;-76
2021/09/03 02:39:13;;;;;;;10.23;2.97;;;;;;;11.37;54.05;98118.69;5007443;28;20079;-75
2021/09/03 02:41:43;;;;;;;10.18;2.80;;;;;;;11.09;54.14;98079.91;5037039;28;20048;-76
2021/09/03 02:44:14;;;;;;;12.70;3.67;;;;;;;10.97;54.21;98058.66;5038434;28;20098;-74
2021/09/03 02:46:46;;;;;;;8.85;2.90;;;;;;;10.91;54.11;98044.34;5005659;28;20125;-76
2021/09/03 02:49:12;;;;;;;14.18;3.65;;;;;;;11.03;54.22;98076.53;4990110;28;20053;-76
2021/09/03 02:51:42;;;;;;;9.82;3.20;;;;;;;11.24;54.45;98111.44;5039437;28;20498;-77
2021/09/03 02:54:08;;;;;;;12.00;3.17;;;;;;;10.72;54.82;98037.25;5038483;28;20037;-74
2021/09/03 02:56:35;;;;;;;7.67;2.53;;;;;;;10.91;54.80;98083.41;5040469;28;20045;-74
2021/09/03 02:59:07;;;;;;;9.77;3.50;;;;;;;10.85;54.78;98068.28;5004905;28;20045;-74
2021/09/03 03:01:34;;;;;;;11.55;4.55;;;;;;;11.07;55.08;98110.31;5006166;28;20179;-73
2021/09/03 03:04:01;;;;;;;21.42;6.97;;;;;;;10.71;55.34;98056.69;5022768;28;20087;-73
2021/09/03 03:06:30;;;;;;;12.75;3.42;;;;;;;10.99;55.38;98100.16;5027963;28;20076;-74
2021/09/03 03:08:56;;;;;;;16.35;4.22;;;;;;;10.83;55.64;98086.13;5039771;28;20053;-74
2021/09/03 03:11:29;;;;;;;11.70;3.00;;;;;;;10.91;55.88;98105.28;4987979;28;20045;-74
2021/09/03 03:14:04;;;;;;;8.93;2.55;;;;;;;10.72;55.80;98063.75;5022871;28;20053;-74
2021/09/03 03:16:33;;;;;;;9.77;2.40;;;;;;;10.61;55.61;98036.75;4996478;28;20049;-77
2021/09/03 03:19:02;;;;;;;11.32;2.58;;;;;;;10.80;55.50;98064.91;5005092;28;20045;-75
2021/09/03 03:21:35;;;;;;;11.48;2.20;;;;;;;10.68;55.49;98058.13;4990829;28;20077;-76
2021/09/03 03:24:45;;;;;;;10.23;2.50;;;;;;;10.67;55.64;98036.59;5022829;28;20057;-77
2021/09/03 03:27:41;;;;;;;7.90;2.25;;;;;;;11.02;55.70;98078.47;4989324;28;20498;-76
2021/09/03 03:30:33;;;;;;;10.48;2.22;;;;;;;10.85;55.49;98038.22;5003044;28;20053;-76
2021/09/03 03:33:26;;;;;;;9.00;2.38;;;;;;;10.64;55.51;97999.75;5003814;28;20056;-76
2021/09/03 03:36:15;;;;;;;13.40;2.20;;;;;;;10.50;55.89;97989.75;5004698;28;20054;-76
2021/09/03 03:38:56;;;;;;;9.05;2.10;;;;;;;11.03;55.68;98055.47;4989932;28;20064;-77
2021/09/03 03:41:53;;;;;;;;;;;;;;;;;;;;;
2021/09/03 03:44:41;;;;;;;9.57;1.90;;;;;;;10.35;56.40;97991.00;5036870;28;20502;-76
2021/09/03 03:47:29;;;;;;;8.18;2.15;;;;;;;10.29;56.00;97966.88;4980752;28;20095;-77
2021/09/03 03:50:13;;;;;;;10.27;2.00;;;;;;;10.43;56.13;97983.97;5018742;28;20057;-76
2021/09/03 03:53:17;;;;;;;5.35;2.00;;;;;;;10.57;56.61;98018.56;4998069;28;20375;-77
2021/09/03 03:55:51;;;;;;;8.15;2.70;;;;;;;10.38;56.26;97975.09;4994677;28;20053;-77
2021/09/03 03:58:27;;;;;;;8.30;2.50;;;;;;;10.88;56.21;98053.97;4991271;28;20050;-77
2021/09/03 04:01:15;;;;;;;10.10;2.55;;;;;;;10.47;56.25;97965.03;5008156;28;20473;-77
2021/09/03 04:04:16;;;;;;;10.57;2.67;;;;;;;10.66;56.38;97980.31;4991436;28;20048;-77
2021/09/03 04:07:32;;;;;;;9.30;2.95;;;;;;;10.95;56.34;98025.38;4986667;28;20049;-77
2021/09/03 04:10:35;;;;;;;10.48;2.80;;;;;;;11.01;56.48;98027.63;4989702;28;20539;-78
2021/09/03 04:13:30;;;;;;;12.50;3.28;;;;;;;11.05;56.28;98017.66;5020821;28;20509;-77
2021/09/03 04:16:17;;;;;;;11.70;2.83;;;;;;;10.84;55.79;97949.13;5004382;28;20131;-77
2021/09/03 04:19:07;;;;;;;12.85;2.97;;;;;;;10.70;56.04;97929.34;4988119;28;20049;-77
2021/09/03 04:22:25;;;;;;;14.70;2.97;;;;;;;11.12;55.75;97976.16;4989264;28;20151;-78
2021/09/03 04:25:33;;;;;;;11.45;3.00;;;;;;;11.27;55.65;97961.16;4986253;28;20057;-78
2021/09/03 04:28:21;;;;;;;12.10;3.10;;;;;;;10.96;55.82;97925.81;5016589;28;20060;-79
2021/09/03 04:31:10;;;;;;;11.00;3.63;;;;;;;10.91;56.40;97937.72;5005408;28;20056;-77
2021/09/03 04:33:51;;;;;;;14.80;3.33;;;;;;;10.38;57.93;97904.06;4990827;28;20046;-78
2021/09/03 04:36:41;;;;;;;12.30;3.40;;;;;;;10.74;57.87;97939.31;5005726;28;20038;-77
2021/09/03 04:39:30;;;;;;;7.70;2.78;;;;;;;10.80;57.89;97937.22;4990148;28;20049;-77
2021/09/03 04:42:14;;;;;;;14.93;3.47;;;;;;;10.46;57.90;97895.09;5007807;28;20049;-76
2021/09/03 04:44:56;;;;;;;14.68;3.28;;;;;;;10.39;57.91;97892.81;5008170;28;20563;-75
2021/09/03 04:47:50;;;;;;;13.10;3.00;;;;;;;10.60;57.68;97905.88;4987133;28;20090;-77
2021/09/03 04:50:26;;;;;;;8.55;3.10;;;;;;;10.99;57.57;97964.22;4997469;28;20062;-78
2021/09/03 04:53:09;;;;;;;7.15;2.72;;;;;;;10.57;57.36;97890.91;4997966;28;20051;-77
2021/09/03 04:55:56;;;;;;;16.48;2.92;;;;;;;10.95;57.21;97921.47;4995778;28;20102;-77
2021/09/03 04:58:45;;;;;;;9.73;2.58;;;;;;;11.10;57.68;97961.19;4978743;28;20051;-78
2021/09/03 05:01:23;;;;;;;6.63;2.42;;;;;;;10.78;57.12;97890.28;4980195;28;20050;-77
2021/09/03 05:04:06;;;;;;;10.15;2.65;;;;;;;10.71;56.97;97898.97;4979962;28;20531;-78
2021/09/03 05:06:55;;;;;;;8.98;2.75;;;;;;;10.62;57.33;97903.63;4981515;28;20078;-77
2021/09/03 05:09:49;;;;;;;8.57;2.30;;;;;;;10.60;58.11;97949.59;4978693;28;20061;-78
2021/09/03 05:12:43;;;;;;;8.68;2.42;;;;;;;9.96;59.19;97886.13;4978871;28;20519;-78
2021/09/03 05:15:39;;;;;;;8.07;2.38;;;;;;;10.24;58.82;97909.69;4979616;28;20054;-78
2021/09/03 05:18:33;;;;;;;7.47;2.20;;;;;;;10.25;59.08;97923.00;5012385;28;20140;-77
2021/09/03 05:21:29;;;;;;;10.68;2.25;;;;;;;10.35;59.09;97939.09;4995487;28;20433;-78
2021/09/03 05:24:22;;;;;;;5.28;2.03;;;;;;;10.41;58.78;97925.28;5000914;28;20056;-77
2021/09/03 05:26:55;;;;;;;5.38;2.05;;;;;;;10.05;59.25;97894.34;4983520;28;20519;-78
2021/09/03 05:29:33;;;;;;;9.68;2.45;;;;;;;10.00;59.30;97870.75;4991629;28;20509;-78
2021/09/03 05:32:17;;;;;;;6.78;2.10;;;;;;;10.33;58.72;97913.22;5021140;28;20040;-77
2021/09/03 05:35:09;;;;;;;5.78;2.20;;;;;;;10.50;58.81;97907.78;4987194;28;20052;-78
2021/09/03 05:38:13;;;;;;;4.82;2.00;;;;;;;10.62;58.29;97901.69;4960950;28;20133;-76
2021/09/03 05:40:47;;;;;;;6.70;2.00;;;;;;;10.44;59.14;97911.00;4954894;28;20081;-76
2021/09/03 05:43:27;;;;;;;7.68;2.17;;;;;;;10.18;58.93;97851.66;4950322;28;20049;-77
2021/09/03 05:45:58;;;;;;;7.07;2.20;;;;;;;10.67;58.67;97902.66;4949898;28;20048;-77
2021/09/03 05:48:39;;;;;;;8.13;2.20;;;;;;;10.84;59.09;97930.00;4964216;28;20078;-78
2021/09/03 05:51:25;;;;;;;8.48;2.35;;;;;;;10.85;58.90;97903.44;4965538;28;20039;-78
2021/09/03 05:54:08;;;;;;;16.33;3.00;;;;;;;10.90;58.69;97887.69;4942009;28;20831;-78
2021/09/03 05:57:00;;;;;;;;;;;;;;;;;;;;;
2021/09/03 05:59:49;;;;;;;4.88;1.90;;;;;;;10.66;58.14;97838.97;4988979;28;20108;-78
2021/09/03 06:02:26;;;;;;;8.60;2.03;;;;;;;10.85;58.56;97874.19;4958740;28;20047;-78
2021/09/03 06:05:00;;;;;;;5.35;1.95;;;;;;;11.06;58.56;97887.97;4974628;28;20058;-79
2021/09/03 06:07:34;;;;;;;7.55;2.00;;;;;;;10.80;58.83;97833.34;4975796;28;20092;-79
2021/09/03 06:10:09;;;;;;;6.88;1.98;;;;;;;10.66;59.01;97827.25;4988435;28;20046;-78
2021/09/03 06:12:54;;;;;;;8.48;2.10;;;;;;;11.05;58.77;97867.25;4961609;28;20106;-78
2021/09/03 06:15:37;;;;;;;18.65;2.63;;;;;;;11.20;58.67;97854.97;4993637;28;20518;-78
2021/09/03 06:18:13;;;;;;;6.88;1.60;;;;;;;11.13;58.66;97830.06;5006361;28;20136;-77
2021/09/03 06:20:48;;;;;;;9.48;1.77;;;;;;;10.94;58.16;97805.81;4998298;28;20076;-78
2021/09/03 06:23:19;;;;;;;5.75;1.95;;;;;;;10.91;58.17;97793.59;4977807;28;20115;-78
2021/09/03 06:25:58;;;;;;;6.80;1.65;;;;;;;11.47;58.23;97861.16;4999798;28;20045;-78
2021/09/03 06:28:27;;;;;;;4.80;1.40;;;;;;;11.29;58.45;97835.00;5001196;28;20526;-78
2021/09/03 06:31:20;;;;;;;9.52;1.77;;;;;;;11.21;58.63;97810.06;4997039;28;20041;-76
2021/09/03 06:34:21;;;;;;;6.15;1.60;;;;;;;11.25;57.85;97806.69;4992815;28;20187;-78
2021/09/03 06:36:52;;;;;;;11.68;1.80;;;;;;;11.32;57.66;97816.00;4996804;28;20069;-79
2021/09/03 06:39:34;;;;;;;10.05;1.73;;;;;;;11.14;57.48;97774.22;4977024;28;20518;-79
2021/09/03 06:42:33;;;;;;;8.10;1.60;;;;;;;11.20;56.92;97775.63;4954188;28;20358;-77
2021/09/03 06:46:07;;;;;;;;;;;;;;;;;;;;;
2021/09/03 06:49:35;;;;;;;;;;;;;;;;;;;;;
2021/09/03 06:57:27;;;;;;;7.70;1.55;;;;;;;11.81;56.48;97779.19;4736702;29;20071;-75
2021/09/03 07:00:32;;;;;;;5.55;1.70;;;;;;;11.63;55.91;97715.53;4690698;29;20647;-75
2021/09/03 07:03:49;;;;;;;6.40;1.50;;;;;;;11.88;56.57;97756.75;4708632;29;20658;-76
2021/09/03 07:07:20;;;;;;;7.63;1.50;;;;;;;11.72;55.94;97708.06;4698618;29;20759;-74
2021/09/03 07:11:04;;;;;;;4.40;1.40;;;;;;;11.85;55.09;97740.97;4666732;29;22456;-74
2021/09/03 07:23:13;;;;;;;;;;;;;;;;;;;;;
2021/09/03 07:29:37;;;;;;;9.82;1.60;;;;;;;11.99;54.55;97656.59;4827824;28;21367;-75
2021/09/03 07:32:59;;;;;;;9.40;2.33;;;;;;;12.53;53.86;97756.38;4695642;28;20862;-74
2021/09/03 07:35:45;;;;;;;4.38;1.40;;;;;;;12.55;54.27;97780.69;4750676;28;21383;-75
2021/09/03 07:38:18;;;;;;;8.30;1.55;;;;;;;12.21;54.21;97657.41;4791637;28;20912;-74
2021/09/03 07:40:52;;;;;;;10.88;1.50;;;;;;;12.43;54.11;97663.63;4788122;28;20052;-75
2021/09/03 07:43:21;;;;;;;6.75;1.38;;;;;;;12.90;53.91;97712.59;4763220;28;21324;-77
2021/09/03 07:46:02;;;;;;;;;;;;;;;;;;;;;
2021/09/03 07:48:36;;;;;;;8.50;1.50;;;;;;;12.61;53.27;97618.41;4807152;28;20869;-75
2021/09/03 07:51:29;;;;;;;9.35;1.45;;;;;;;13.21;52.57;97715.94;4989517;28;20044;-78
2021/09/03 07:53:58;;;;;;;5.35;1.30;;;;;;;12.91;52.18;97691.47;5020111;28;20056;-76
2021/09/03 07:56:27;;;;;;;9.80;1.63;;;;;;;12.59;52.20;97630.88;4987243;28;20059;-76
2021/09/03 07:58:55;;;;;;;15.27;1.40;;;;;;;12.95;52.26;97735.44;5020063;28;20452;-75
2021/09/03 08:01:21;;;;;;;7.15;1.35;;;;;;;12.54;51.65;97661.25;5016010;28;20075;-76
2021/09/03 08:03:48;;;;;;;4.07;1.20;;;;;;;12.86;51.80;97654.09;4995541;28;20048;-76
2021/09/03 08:06:15;;;;;;;8.00;1.77;;;;;;;13.18;51.55;97672.69;5036983;28;20053;-76
2021/09/03 08:08:42;;;;;;;4.03;1.30;;;;;;;13.15;51.34;97646.75;5034544;28;20045;-77
2021/09/03 08:11:09;;;;;;;6.25;1.75;;;;;;;12.93;51.58;97636.25;4987687;28;20449;-76
2021/09/03 08:13:40;;;;;;;4.17;1.53;;;;;;;12.79;51.66;97672.25;5021068;28;20061;-73
2021/09/03 08:16:10;;;;;;;10.75;1.60;;;;;;;13.02;51.97;97656.13;5005199;28;20052;-75
2021/09/03 08:18:40;;;;;;;9.05;1.63;;;;;;;12.97;51.79;97637.97;4988167;28;20049;-76
2021/09/03 08:21:10;;;;;;;8.57;1.70;;;;;;;13.00;51.93;97648.25;5002975;28;20311;-75
2021/09/03 08:23:50;;;;;;;13.23;1.92;;;;;;;13.08;52.23;97697.88;4991211;28;20049;-75
2021/09/03 08:26:17;;;;;;;5.78;1.60;;;;;;;12.49;53.44;97593.75;5006308;28;20064;-75
2021/09/03 08:28:47;;;;;;;8.82;1.63;;;;;;;12.80;53.82;97666.44;4988355;28;20041;-74
2021/09/03 08:31:20;;;;;;;12.82;1.77;;;;;;;12.67;54.52;97623.69;5004049;28;20048;-75
2021/09/03 08:33:49;;;;;;;7.05;2.00;;;;;;;12.88;54.47;97660.03;5052215;28;20513;-74
2021/09/03 08:36:25;;;;;;;13.27;1.77;;;;;;;12.47;55.44;97616.03;4989089;28;20527;-76
2021/09/03 08:39:05;;;;;;;13.05;1.77;;;;;;;12.36;56.16;97609.38;5005056;28;20049;-75
2021/09/03 08:41:36;;;;;;;13.65;1.77;;;;;;;12.65;56.84;97656.13;5005033;28;20045;-76
2021/09/03 08:44:08;;;;;;;4.63;1.33;;;;;;;12.59;57.18;97664.56;4988929;28;20460;-75
2021/09/03 08:46:50;;;;;;;8.05;1.70;;;;;;;12.38;57.15;97614.53;4987337;28;20088;-76
2021/09/03 08:49:28;;;;;;;9.02;1.70;;;;;;;12.30;57.93;97618.97;4990974;28;20049;-77
2021/09/03 08:51:54;;;;;;;7.85;1.70;;;;;;;12.03;60.11;97623.91;5020498;28;20087;-78
2021/09/03 08:54:25;;;;;;;7.13;1.92;;;;;;;12.20;60.55;97650.34;5005339;28;20510;-78
2021/09/03 08:56:52;;;;;;;8.10;1.55;;;;;;;11.63;61.10;97625.22;5038034;28;20148;-78
2021/09/03 08:59:19;;;;;;;8.82;1.80;;;;;;;11.75;60.80;97595.16;4987917;28;20052;-77
2021/09/03 09:02:12;;;;;;;6.77;1.60;;;;;;;11.66;61.16;97618.28;5004456;28;20579;-80
2021/09/03 09:04:44;;;;;;;10.50;1.50;;;;;;;12.17;60.58;97648.25;4986997;28;20132;-76
2021/09/03 09:07:12;;;;;;;13.60;1.42;;;;;;;12.01;60.57;97621.50;5004925;28;20057;-77
2021/09/03 09:09:42;;;;;;;9.00;1.42;;;;;;;11.95;60.41;97644.72;5004679;28;20045;-76
2021/09/03 09:12:11;;;;;;;6.88;1.50;;;;;;;11.50;60.87;97594.25;4988577;28;20506;-77
2021/09/03 09:15:07;;;;;;;5.28;1.75;;;;;;;12.15;60.88;97661.47;5003890;28;20057;-77
2021/09/03 09:17:35;;;;;;;7.10;1.60;;;;;;;11.72;60.90;97612.25;5036606;28;20418;-77
2021/09/03 09:20:05;;;;;;;8.75;1.70;;;;;;;11.81;61.27;97595.75;5018078;28;20183;-76
2021/09/03 09:22:54;;;;;;;7.13;1.60;;;;;;;11.74;60.91;97584.53;5024279;28;20041;-76
2021/09/03 09:25:24;;;;;;;3.90;1.40;;;;;;;11.98;60.74;97616.66;5040372;28;20106;-77
2021/09/03 09:27:50;;;;;;;11.07;1.63;;;;;;;11.98;60.72;97646.78;5040237;28;20156;-75
2021/09/03 09:30:22;;;;;;;5.38;1.38;;;;;;;11.85;60.64;97593.94;5040132;28;20527;-76
2021/09/03 09:33:17;;;;;;;3.85;1.40;;;;;;;11.91;61.60;97650.06;5024921;28;20046;-77
2021/09/03 09:35:49;;;;;;;7.55;1.67;;;;;;;11.89;61.66;97652.34;4992222;28;20062;-76
2021/09/03 09:38:21;;;;;;;4.45;1.58;;;;;;;11.73;61.66;97637.69;5015931;28;20057;-77
2021/09/03 09:40:54;;;;;;;7.15;1.58;;;;;;;11.84;61.41;97635.31;5040625;28;20091;-76
2021/09/03 09:43:33;;;;;;;7.38;1.45;;;;;;;11.66;62.23;97594.41;5008093;28;20053;-77
2021/09/03 09:46:18;;;;;;;8.20;1.58;;;;;;;11.99;61.06;97621.00;5007249;28;20171;-77
2021/09/03 09:49:07;;;;;;;5.05;1.35;;;;;;;11.94;60.84;97579.34;5024093;28;20643;-77
2021/09/03 09:51:37;;;;;;;5.75;1.55;;;;;;;11.69;61.44;97591.00;5024054;28;20407;-75
2021/09/03 09:54:16;;;;;;;;;;;;;;;;;;;;;
2021/09/03 09:56:50;;;;;;;11.38;1.90;;;;;;;11.82;62.13;97591.06;5040609;28;20049;-77
2021/09/03 09:59:18;;;;;;;6.75;1.67;;;;;;;11.95;61.77;97609.13;5023700;28;20061;-76
2021/09/03 10:01:45;;;;;;;;;;;;;;;12.11;61.33;97598.38;5042182;28;20517;-77
2021/09/03 10:04:15;;;;;;;7.35;1.70;;;;;;;11.81;61.88;97546.47;5023077;28;19929;-78
2021/09/03 10:06:57;;;;;;;6.22;1.80;;;;;;;11.34;62.33;97559.28;4992951;28;20049;-78
2021/09/03 10:09:25;;;;;;;5.75;1.80;;;;;;;11.63;62.57;97567.72;5023615;28;20056;-78
2021/09/03 10:11:58;;;;;;;6.78;2.05;;;;;;;11.52;63.23;97605.66;5041825;28;20053;-77
2021/09/03 10:14:36;;;;;;;13.68;2.38;;;;;;;11.49;62.85;97585.22;5003923;28;20107;-77
2021/09/03 10:17:08;;;;;;;6.47;1.70;;;;;;;11.64;62.84;97585.75;5023538;28;20115;-77
2021/09/03 10:19:37;;;;;;;5.40;1.70;;;;;;;11.41;62.79;97552.47;4989266;28;20049;-76
2021/09/03 10:22:11;;;;;;;9.68;1.90;;;;;;;11.22;63.27;97553.75;5022797;28;20145;-77
2021/09/03 10:24:42;;;;;;;5.20;1.77;;;;;;;10.99;64.40;97550.53;5007395;28;20045;-77
2021/09/03 10:27:11;;;;;;;6.57;1.83;;;;;;;11.20;63.53;97558.75;5006769;28;20057;-77
2021/09/03 10:29:40;;;;;;;7.82;2.00;;;;;;;11.34;63.89;97585.84;5006948;28;20088;-76
2021/09/03 10:32:19;;;;;;;13.93;2.00;;;;;;;11.23;64.08;97568.22;4999790;28;20055;-76
2021/09/03 10:35:13;;;;;;;6.47;2.25;;;;;;;11.74;63.63;97615.44;5000195;28;20049;-77
2021/09/03 10:37:40;;;;;;;6.57;2.00;;;;;;;11.38;63.61;97551.19;5023502;28;20144;-76
2021/09/03 10:40:27;;;;;;;8.63;2.33;;;;;;;11.80;64.03;97607.84;5023400;28;20108;-74
2021/09/03 10:43:03;;;;;;;11.05;2.40;;;;;;;11.40;64.61;97578.22;5023487;28;20470;-75
2021/09/03 10:45:36;;;;;;;11.50;2.38;;;;;;;11.11;64.34;97531.47;5002464;28;20158;-75
2021/09/03 10:48:10;;;;;;;8.00;2.40;;;;;;;11.52;65.24;97602.94;4988819;28;20448;-75
2021/09/03 10:50:54;;;;;;;11.32;2.10;;;;;;;11.09;65.69;97566.56;5022472;28;20144;-75
2021/09/03 10:53:35;;;;;;;7.33;2.20;;;;;;;11.28;66.32;97587.97;5040097;28;20053;-75
2021/09/03 10:56:26;;;;;;;9.15;2.47;;;;;;;11.15;66.73;97575.34;5006210;28;20049;-75
2021/09/03 10:59:03;;;;;;;7.97;2.20;;;;;;;10.87;66.89;97564.94;5022066;28;20057;-76
2021/09/03 11:01:51;;;;;;;10.90;2.70;;;;;;;10.94;66.38;97534.34;5022833;28;20041;-75
2021/09/03 11:04:23;;;;;;;10.00;2.63;;;;;;;10.91;66.06;97503.78;5040011;28;20036;-75
2021/09/03 11:07:12;;;;;;;11.27;2.72;;;;;;;10.81;66.73;97504.19;4992474;28;20160;-74
2021/09/03 11:09:43;;;;;;;9.05;2.75;;;;;;;10.89;66.56;97516.97;5007594;28;20143;-74
2021/09/03 11:12:32;;;;;;;15.48;2.85;;;;;;;11.26;67.21;97581.25;5040435;28;20056;-75
2021/09/03 11:15:15;;;;;;;9.32;2.88;;;;;;;11.25;67.01;97594.09;5039679;28;20045;-76
2021/09/03 11:17:42;;;;;;;10.38;3.20;;;;;;;10.61;67.26;97479.25;5016380;28;20048;-76
2021/09/03 11:20:09;;;;;;;10.37;3.73;;;;;;;10.86;66.95;97508.66;4989829;28;20052;-75
2021/09/03 11:22:37;;;;;;;15.35;3.38;;;;;;;10.90;66.70;97495.94;5021759;28;20047;-76
2021/09/03 11:25:07;;;;;;;11.05;3.25;;;;;;;10.86;66.93;97498.53;5040340;28;20052;-75
2021/09/03 11:27:35;;;;;;;12.40;3.17;;;;;;;11.42;66.37;97563.09;5005996;28;20151;-76
2021/09/03 11:30:07;;;;;;;11.65;3.50;;;;;;;11.46;66.42;97558.53;5004685;28;20452;-76
2021/09/03 11:32:36;;;;;;;16.55;4.00;;;;;;;11.39;66.28;97561.00;5022462;28;20092;-76
2021/09/03 11:35:06;;;;;;;9.98;3.22;;;;;;;10.90;66.79;97501.41;5021470;28;20087;-76
2021/09/03 11:37:39;;;;;;;15.77;3.90;;;;;;;10.86;66.63;97471.19;5022544;28;20053;-75
2021/09/03 11:40:14;;;;;;;18.17;3.83;;;;;;;11.08;66.88;97518.44;4991926;28;20050;-75
2021/09/03 11:42:49;;;;;;;12.02;3.78;;;;;;;10.91;66.65;97492.84;5038763;28;20046;-76
2021/09/03 11:45:20;;;;;;;17.58;3.80;;;;;;;11.39;66.68;97528.16;5005933;28;20053;-77
2021/09/03 11:47:50;;;;;;;11.82;3.70;;;;;;;11.06;66.34;97444.97;5024037;28;20048;-74
2021/09/03 11:50:24;;;;;;;18.27;4.00;;;;;;;11.65;65.32;97474.34;4987576;28;20602;-76
2021/09/03 11:52:51;;;;;;;12.68;3.97;;;;;;;12.07;64.92;97506.28;4992117;28;20045;-74
2021/09/03 11:55:22;;;;;;;11.63;3.97;;;;;;;11.70;64.34;97438.53;5024897;28;20052;-75
2021/09/03 11:57:54;;;;;;;17.13;3.88;;;;;;;12.18;64.21;97478.06;5015342;28;20117;-76
2021/09/03 12:00:32;;;;;;;14.23;3.63;;;;;;;11.87;64.49;97418.38;5008576;28;20527;-76
2021/09/03 12:03:12;;;;;;;11.55;4.00;;;;;;;12.26;64.20;97481.06;5006560;28;20068;-76
2021/09/03 12:05:52;;;;;;;17.83;4.35;;;;;;;12.12;64.13;97489.59;5003480;28;20131;-76
2021/09/03 12:08:26;;;;;;;13.35;3.95;;;;;;;12.02;64.66;97467.03;5022161;28;20419;-76
2021/09/03 12:10:58;;;;;;;12.32;3.80;;;;;;;11.69;64.26;97395.88;5036909;28;20045;-77
2021/09/03 12:13:26;;;;;;;15.57;4.25;;;;;;;12.02;64.33;97439.63;4990077;28;20047;-77
2021/09/03 12:16:04;;;;;;;16.80;4.22;;;;;;;12.08;64.34;97423.75;5039328;28;20072;-77
2021/09/03 12:18:33;;;;;;;12.38;3.88;;;;;;;11.97;63.55;97359.59;5021002;28;20049;-76
2021/09/03 12:21:03;;;;;;;14.02;3.40;;;;;;;12.06;63.34;97363.03;5022211;28;20051;-77
2021/09/03 12:23:37;;;;;;;16.95;4.20;;;;;;;12.61;62.88;97403.81;5022451;28;20151;-77
2021/09/03 12:26:11;;;;;;;10.98;3.85;;;;;;;13.28;61.55;97392.34;5021102;28;20045;-76
2021/09/03 12:28:41;;;;;;;16.20;4.10;;;;;;;13.80;60.03;97383.47;4988705;28;20045;-77
2021/09/03 12:31:12;;;;;;;11.70;4.07;;;;;;;14.14;58.44;97362.69;5021664;28;20056;-77
2021/09/03 12:33:54;;;;;;;13.77;4.38;;;;;;;14.22;57.84;97349.09;5041194;28;20421;-77
2021/09/03 12:36:25;;;;;;;21.15;4.32;;;;;;;14.50;57.72;97428.63;5005957;28;20057;-76
2021/09/03 12:38:54;;;;;;;20.98;4.22;;;;;;;13.79;58.67;97344.19;4989459;28;20094;-76
2021/09/03 12:41:28;;;;;;;14.95;3.85;;;;;;;13.82;58.47;97342.69;5021783;28;20075;-76
2021/09/03 12:43:59;;;;;;;13.93;3.88;;;;;;;14.15;58.42;97388.19;5021659;28;20045;-77
2021/09/03 12:46:33;;;;;;;17.00;4.10;;;;;;;14.02;58.90;97355.31;5021538;28;20056;-77
2021/09/03 12:49:06;;;;;;;11.40;3.90;;;;;;;13.40;58.68;97284.44;5021359;28;20053;-77
2021/09/03 12:51:34;;;;;;;14.75;4.28;;;;;;;13.66;58.62;97361.91;5021410;28;20045;-77
2021/09/03 12:54:04;;;;;;;16.73;4.32;;;;;;;13.42;59.18;97337.00;5037574;28;20041;-76